createdAt,value
2023-03-01T00:00:50.040Z,16.55
2023-03-01T00:05:52.127Z,16.55
2023-03-01T00:11:16.063Z,14.95
2023-03-01T00:16:24.858Z,14.77
2023-03-01T00:21:28.053Z,16.70
2023-03-01T00:26:30.499Z,15.15
2023-03-01T00:31:34.172Z,13.75
2023-03-01T00:36:38.304Z,13.43
2023-03-01T00:41:41.465Z,13.82
2023-03-01T00:46:43.750Z,12.35
2023-03-01T00:51:45.920Z,12.43
2023-03-01T00:56:48.162Z,12.32
2023-03-01T01:01:50.698Z,13.68
2023-03-01T01:06:52.896Z,12.02
2023-03-01T01:11:54.988Z,12.85
2023-03-01T01:16:57.620Z,13.15
2023-03-01T01:21:59.892Z,13.45
2023-03-01T01:27:02.014Z,13.02
2023-03-01T01:32:04.247Z,13.20
2023-03-01T01:37:09.120Z,13.45
2023-03-01T01:42:20.407Z,15.05
2023-03-01T01:47:24.625Z,13.38
2023-03-01T01:52:33.073Z,11.82
2023-03-01T01:57:57.886Z,10.98
2023-03-01T02:03:05.238Z,9.93
2023-03-01T02:08:09.723Z,10.00
2023-03-01T02:13:12.813Z,10.18
2023-03-01T02:18:18.780Z,9.43
2023-03-01T02:23:21.458Z,9.48
2023-03-01T02:28:35.009Z,7.43
2023-03-01T02:33:40.412Z,6.65
2023-03-01T02:38:44.066Z,7.20
2023-03-01T02:43:46.830Z,6.88
2023-03-01T02:48:59.871Z,8.15
2023-03-01T02:54:10.693Z,9.52
2023-03-01T02:59:13.707Z,7.45
2023-03-01T03:04:19.531Z,7.65
2023-03-01T03:09:21.873Z,7.07
2023-03-01T03:14:24.888Z,8.30
2023-03-01T03:19:27.205Z,7.65
2023-03-01T03:24:30.073Z,8.07
2023-03-01T03:29:32.447Z,9.30
2023-03-01T03:34:34.679Z,9.48
2023-03-01T03:39:36.838Z,9.70
2023-03-01T03:44:39.073Z,9.23
2023-03-01T03:49:41.229Z,9.63
2023-03-01T03:54:43.424Z,9.90
2023-03-01T03:59:45.508Z,8.52
2023-03-01T04:04:47.617Z,8.85
2023-03-01T04:09:49.858Z,11.45
2023-03-01T04:14:52.199Z,12.73
2023-03-01T04:19:54.374Z,11.93
2023-03-01T04:24:56.615Z,12.82
2023-03-01T04:29:58.712Z,12.10
2023-03-01T04:35:01.638Z,12.65
2023-03-01T04:40:17.518Z,14.13
2023-03-01T04:45:20.150Z,14.75
2023-03-01T04:50:23.013Z,15.65
2023-03-01T04:55:27.155Z,15.80
2023-03-01T05:00:29.370Z,15.93
2023-03-01T05:05:38.001Z,17.15
2023-03-01T05:10:40.275Z,16.60
2023-03-01T05:15:42.579Z,15.15
2023-03-01T05:20:46.053Z,16.25
2023-03-01T05:25:48.198Z,15.73
2023-03-01T05:30:53.052Z,16.70
2023-03-01T05:35:55.542Z,18.52
2023-03-01T05:40:57.747Z,16.92
2023-03-01T05:46:01.240Z,15.50
2023-03-01T05:51:03.520Z,16.73
2023-03-01T05:56:06.004Z,16.83
2023-03-01T06:01:13.287Z,17.50
2023-03-01T06:06:15.432Z,19.58
2023-03-01T06:11:17.863Z,18.75
2023-03-01T06:16:20.093Z,18.10
2023-03-01T06:21:22.245Z,16.58
2023-03-01T06:26:24.426Z,18.48
2023-03-01T06:31:26.622Z,14.35
2023-03-01T06:36:29.066Z,15.25
2023-03-01T06:41:31.348Z,12.05
2023-03-01T06:46:33.902Z,12.65
2023-03-01T06:51:39.234Z,11.82
2023-03-01T06:56:41.404Z,12.73
2023-03-01T07:01:43.871Z,12.98
2023-03-01T07:06:45.951Z,11.55
2023-03-01T07:11:48.392Z,10.60
2023-03-01T07:16:50.569Z,9.90
2023-03-01T07:21:52.788Z,9.23
2023-03-01T07:26:55.076Z,10.82
2023-03-01T07:31:57.252Z,9.60
2023-03-01T07:36:59.404Z,10.77
2023-03-01T07:42:01.507Z,9.30
2023-03-01T07:47:05.545Z,10.13
2023-03-01T07:52:07.704Z,9.20
2023-03-01T07:57:09.878Z,9.82
2023-03-01T08:02:12.801Z,10.50
2023-03-01T08:07:15.120Z,9.68
2023-03-01T08:12:20.126Z,7.88
2023-03-01T08:17:22.535Z,7.57
2023-03-01T08:22:24.882Z,7.47
2023-03-01T08:27:27.140Z,7.63
2023-03-01T08:32:29.417Z,9.77
2023-03-01T08:37:34.185Z,8.55
2023-03-01T08:42:36.425Z,8.98
2023-03-01T08:47:38.805Z,8.75
2023-03-01T08:52:41.066Z,9.63
2023-03-01T08:57:43.232Z,8.90
2023-03-01T09:02:45.467Z,9.80
2023-03-01T09:07:47.668Z,10.05
2023-03-01T09:12:49.861Z,8.95
2023-03-01T09:17:53.182Z,9.68
2023-03-01T09:22:55.479Z,8.85
2023-03-01T09:27:57.745Z,9.43
2023-03-01T09:32:59.948Z,8.45
2023-03-01T09:38:02.510Z,8.88
2023-03-01T09:43:17.219Z,9.02
2023-03-01T09:48:26.008Z,8.73
2023-03-01T09:53:36.562Z,7.70
2023-03-01T09:58:44.916Z,9.63
2023-03-01T10:04:05.700Z,8.68
2023-03-01T10:09:14.038Z,8.23
2023-03-01T10:14:37.000Z,9.00
2023-03-01T10:19:43.250Z,8.13
2023-03-01T10:24:47.955Z,8.43
2023-03-01T10:30:23.114Z,8.18
2023-03-01T10:35:29.084Z,11.18
2023-03-01T10:40:31.953Z,9.57
2023-03-01T10:45:40.327Z,9.02
2023-03-01T10:50:48.296Z,8.27
2023-03-01T10:55:59.958Z,8.40
2023-03-01T11:01:03.944Z,7.90
2023-03-01T11:06:22.198Z,8.93
2023-03-01T11:11:32.827Z,7.93
2023-03-01T11:16:38.815Z,8.32
2023-03-01T11:21:48.828Z,8.18
2023-03-01T11:26:55.986Z,8.43
2023-03-01T11:32:03.092Z,7.75
2023-03-01T11:37:27.615Z,8.25
2023-03-01T11:42:45.506Z,8.75
2023-03-01T11:48:01.304Z,9.00
2023-03-01T11:53:33.098Z,7.78
2023-03-01T11:58:49.320Z,8.02
2023-03-01T12:04:07.278Z,7.65
2023-03-01T12:09:34.177Z,10.00
2023-03-01T12:15:08.005Z,11.00
2023-03-01T12:20:37.554Z,10.13
2023-03-01T12:26:05.032Z,12.17
2023-03-01T12:31:35.509Z,10.48
2023-03-01T12:36:45.491Z,9.65
2023-03-01T12:42:13.896Z,10.85
2023-03-01T12:47:50.972Z,11.30
2023-03-01T12:52:56.995Z,10.30
2023-03-01T12:58:01.886Z,10.73
2023-03-01T13:03:15.734Z,11.15
2023-03-01T13:08:43.944Z,10.43
2023-03-01T13:13:47.922Z,11.43
2023-03-01T13:18:50.189Z,9.63
2023-03-01T13:23:52.496Z,9.98
2023-03-01T13:28:57.299Z,10.20
2023-03-01T13:34:08.629Z,10.30
2023-03-01T13:39:34.528Z,8.52
2023-03-01T13:44:40.107Z,7.53
2023-03-01T13:49:53.330Z,7.85
2023-03-01T13:54:57.151Z,7.70
2023-03-01T13:59:59.576Z,7.90
2023-03-01T14:05:03.138Z,7.90
2023-03-01T14:10:07.434Z,6.53
2023-03-01T14:15:28.847Z,5.97
2023-03-01T14:20:36.801Z,5.85
2023-03-01T14:25:40.265Z,4.93
2023-03-01T14:30:51.081Z,4.72
2023-03-01T14:35:54.549Z,4.22
2023-03-01T14:41:00.739Z,5.22
2023-03-01T14:46:03.060Z,4.75
2023-03-01T14:51:07.238Z,5.72
2023-03-01T14:56:16.515Z,6.72
2023-03-01T15:01:21.222Z,6.50
2023-03-01T15:06:25.081Z,7.00
2023-03-01T15:11:32.875Z,7.50
2023-03-01T15:16:40.461Z,7.78
2023-03-01T15:21:48.329Z,7.88
2023-03-01T15:26:58.905Z,8.10
2023-03-01T15:32:26.198Z,8.50
2023-03-01T15:37:49.897Z,8.15
2023-03-01T15:42:53.028Z,9.05
2023-03-01T15:48:03.344Z,8.73
2023-03-01T15:53:08.214Z,8.65
2023-03-01T15:58:14.738Z,8.32
2023-03-01T16:03:22.753Z,8.18
2023-03-01T16:08:25.056Z,13.20
2023-03-01T16:13:29.079Z,9.27
2023-03-01T16:18:31.605Z,9.48
2023-03-01T16:23:34.265Z,8.90
2023-03-01T16:28:36.437Z,7.88
2023-03-01T16:33:39.298Z,9.32
2023-03-01T16:38:41.545Z,8.80
2023-03-01T16:43:44.210Z,8.73
2023-03-01T16:48:48.387Z,8.88
2023-03-01T16:53:52.193Z,8.95
2023-03-01T16:58:54.892Z,9.90
2023-03-01T17:03:57.083Z,9.18
2023-03-01T17:09:00.381Z,9.25
2023-03-01T17:14:02.563Z,10.35
2023-03-01T17:19:04.729Z,8.60
2023-03-01T17:24:07.128Z,10.27
2023-03-01T17:29:09.429Z,10.38
2023-03-01T17:34:11.591Z,11.02
2023-03-01T17:39:13.979Z,10.85
2023-03-01T17:44:16.177Z,9.35
2023-03-01T17:49:18.670Z,11.05
2023-03-01T17:54:20.947Z,11.30
2023-03-01T17:59:23.187Z,11.27
2023-03-01T18:04:25.456Z,11.73
2023-03-01T18:09:28.687Z,11.48
2023-03-01T18:14:34.303Z,11.82
2023-03-01T18:19:36.465Z,10.70
2023-03-01T18:24:39.577Z,11.50
2023-03-01T18:29:41.749Z,9.98
2023-03-01T18:34:43.877Z,9.98
2023-03-01T18:39:46.230Z,10.13
2023-03-01T18:44:49.381Z,11.02
2023-03-01T18:49:51.625Z,9.98
2023-03-01T18:54:53.821Z,11.65
2023-03-01T18:59:56.005Z,10.02
2023-03-01T19:04:58.279Z,10.77
2023-03-01T19:10:00.552Z,14.05
2023-03-01T19:15:02.856Z,11.15
2023-03-01T19:20:06.085Z,11.57
2023-03-01T19:25:08.796Z,14.85
2023-03-01T19:30:11.689Z,13.45
2023-03-01T19:35:13.954Z,12.77
2023-03-01T19:40:16.282Z,13.07
2023-03-01T19:45:25.219Z,15.95
2023-03-01T19:50:34.177Z,19.00
2023-03-01T19:55:38.082Z,15.65
2023-03-01T20:00:46.042Z,12.75
2023-03-01T20:05:48.510Z,17.00
2023-03-01T20:10:51.261Z,13.90
2023-03-01T20:15:55.782Z,12.75
2023-03-01T20:20:59.572Z,13.68
2023-03-01T20:26:05.004Z,12.82
2023-03-01T20:31:10.089Z,11.88
2023-03-01T20:36:12.839Z,12.48
2023-03-01T20:41:15.145Z,13.38
2023-03-01T20:46:17.287Z,12.68
2023-03-01T20:51:20.205Z,12.80
2023-03-01T20:56:23.275Z,11.95
2023-03-01T21:01:25.915Z,13.18
2023-03-01T21:06:28.482Z,13.02
2023-03-01T21:11:30.795Z,19.27
2023-03-01T21:16:34.265Z,13.23
2023-03-01T21:21:37.345Z,13.15
2023-03-01T21:26:39.834Z,13.48
2023-03-01T21:31:42.058Z,14.02
2023-03-01T21:36:44.158Z,13.13
2023-03-01T21:41:46.621Z,16.48
2023-03-01T21:46:50.092Z,15.13
2023-03-01T21:51:52.636Z,14.15
2023-03-01T21:56:54.856Z,12.65
2023-03-01T22:01:56.985Z,12.23
2023-03-01T22:06:59.172Z,13.15
2023-03-01T22:12:04.340Z,13.27
2023-03-01T22:17:06.819Z,15.05
2023-03-01T22:22:09.180Z,13.93
2023-03-01T22:27:11.341Z,12.77
2023-03-01T22:32:13.616Z,15.88
2023-03-01T22:37:15.934Z,14.18
2023-03-01T22:42:19.085Z,12.02
2023-03-01T22:47:21.243Z,13.20
2023-03-01T22:52:23.833Z,13.75
2023-03-01T22:57:25.917Z,11.80
2023-03-01T23:02:28.844Z,11.88
2023-03-01T23:07:31.225Z,12.00
2023-03-01T23:12:33.423Z,11.55
2023-03-01T23:17:36.014Z,11.77
2023-03-01T23:22:38.617Z,15.23
2023-03-01T23:27:40.894Z,14.90
2023-03-01T23:32:43.100Z,13.63
2023-03-01T23:37:45.976Z,11.55
2023-03-01T23:42:48.077Z,11.35
2023-03-01T23:47:50.184Z,11.90
2023-03-01T23:52:52.323Z,15.13
2023-03-01T23:57:54.594Z,12.32
